Aérodrome :
LOGIN :

S'inscrire | Disclaimer

   EN    FR    IT 

 










Légende :    VFR   VFR Marginal   IFR   IFR Intensif   IFR Très Intensif
Visi : 
Plafond : 
>= 8 km
>= 3000ft
5 à 8 km
1000 à 3000 ft
1500m à 5 km
500 à 1000 ft
800 à 1500m
200 à 500 ft
< 800m
< 200 ft
Symboles :   Orages  Brouillard  Fortes neiges  Fortes précipitations  Vent > 20 kt
SIGMETs :   Divers  Orages  Givrage  Turbulence  Onde Orograph.  Cendres Volcan.







- Altitude de l'aérodrome : 461 ft
- Code IATA : WIE


ETOU - Wiesbaden Army

DERNIER METAR :
  • 270556Z AUTO 12003KT 9999 SCT200 07/04 A2999 RMK AO2 SLP159 T00670038 10067 20031 57013 $

METARs EXPIRÉS :
  • 270456Z AUTO 00000KT 9999 CLR 05/02 A3000 RMK AO2 SLP163 T00470022 $
  • 270356Z AUTO 00000KT 9999 BKN150 04/02 A3001 RMK AO2 SLP167 T00400017 $

TAF TAF ETOU
Valide du 27 à 03h jusqu'au 28 à 09h UTC


270304Z 2703/2809 VRB06KT 9999 FEW045 QNH2994INS
BECMG 2708/2709 12009KT 9999 FEW060 SCT100 QNH2972INS
BECMG 2717/2718 22009KT 9999 SCT025 BKN040 QNH2973INS
BECMG 2807/2808 22012KT 9999 BKN030 QNH2987INS TX21/2714Z TN01/2704Z
Pas de NOTAMs connus pour ce terrain.



MET'MAP, la Météo Aéronautique d'un coup d'oeil ! - Copyright ORBIFLY Décembre 2007 - Disclaimer

ORBIFLY MET'MAP TEAM :

Programmation & Développement : Alexandra Zaïnal
Conception & Développement : Baudouin d'Aumeries
Co-Programmation & Développement : Marc-Olivier Méhu
Soutien technique & logistique : Manuel Goepfert

Contact : metmap@orbifly.com




SOURCES & CREDITS :

   NOAA